createdAt,value
2023-03-02T00:02:06.564Z,-3.45
2023-03-02T00:05:14.573Z,-3.66
2023-03-02T00:08:22.996Z,-3.50
2023-03-02T00:11:28.013Z,-3.45
2023-03-02T00:14:51.658Z,-3.41
2023-03-02T00:17:57.917Z,-3.39
2023-03-02T00:21:03.821Z,-3.60
2023-03-02T00:24:11.205Z,-3.58
2023-03-02T00:27:17.383Z,-3.58
2023-03-02T00:30:24.610Z,-2.90
2023-03-02T00:33:32.791Z,-3.15
2023-03-02T00:36:40.136Z,-3.41
2023-03-02T00:39:48.569Z,-3.47
2023-03-02T00:42:56.350Z,-3.67
2023-03-02T00:46:11.167Z,-3.74
2023-03-02T00:49:19.304Z,-3.83
2023-03-02T00:52:25.968Z,-4.00
2023-03-02T00:55:31.899Z,-3.88
2023-03-02T00:58:37.917Z,-3.85
2023-03-02T01:01:58.159Z,-3.88
2023-03-02T01:05:07.279Z,-3.98
2023-03-02T01:08:14.888Z,-3.91
2023-03-02T01:11:23.793Z,-3.91
2023-03-02T01:14:31.363Z,-3.93
2023-03-02T01:17:41.640Z,-3.65
2023-03-02T01:20:49.108Z,-3.49
2023-03-02T01:23:57.010Z,-3.88
2023-03-02T01:27:03.550Z,-3.91
2023-03-02T01:30:10.568Z,-3.35
2023-03-02T01:33:16.978Z,-3.15
2023-03-02T01:36:27.313Z,-3.41
2023-03-02T01:39:36.093Z,-3.59
2023-03-02T01:42:42.608Z,-3.44
2023-03-02T01:45:57.508Z,-3.41
2023-03-02T01:49:27.297Z,-3.18
2023-03-02T01:52:39.835Z,-3.11
2023-03-02T01:55:47.410Z,-3.29
2023-03-02T01:58:55.554Z,-3.36
2023-03-02T02:02:05.323Z,-3.67
2023-03-02T02:05:18.586Z,-3.64
2023-03-02T02:08:25.087Z,-3.63
2023-03-02T02:11:29.076Z,-3.57
2023-03-02T02:14:36.467Z,-3.71
2023-03-02T02:17:46.699Z,-3.88
2023-03-02T02:20:59.843Z,-3.80
2023-03-02T02:24:11.249Z,-3.72
2023-03-02T02:27:21.986Z,-3.95
2023-03-02T02:30:35.372Z,-3.70
2023-03-02T02:33:45.842Z,-3.70
2023-03-02T02:36:57.997Z,-3.86
2023-03-02T02:40:07.652Z,-3.75
2023-03-02T02:43:19.856Z,-3.75
2023-03-02T02:46:26.308Z,-3.77
2023-03-02T02:49:36.595Z,-3.81
2023-03-02T02:52:46.215Z,-3.84
2023-03-02T02:55:57.013Z,-3.83
2023-03-02T02:59:20.416Z,-3.39
2023-03-02T03:02:29.061Z,-4.01
2023-03-02T03:05:36.555Z,-4.24
2023-03-02T03:09:02.705Z,-4.16
2023-03-02T03:12:18.262Z,-4.06
2023-03-02T03:15:27.125Z,-3.78
2023-03-02T03:18:32.493Z,-4.12
2023-03-02T03:21:41.878Z,-4.00
2023-03-02T03:24:48.256Z,-4.24
2023-03-02T03:27:54.836Z,-4.23
2023-03-02T03:31:02.316Z,-3.89
2023-03-02T03:34:09.790Z,-4.28
2023-03-02T03:37:24.549Z,-3.85
2023-03-02T03:40:35.072Z,-3.65
2023-03-02T03:43:41.009Z,-3.71
2023-03-02T03:46:47.167Z,-3.77
2023-03-02T03:49:53.640Z,-4.38
2023-03-02T03:53:01.319Z,-4.16
2023-03-02T03:56:10.318Z,-4.11
2023-03-02T03:59:17.794Z,-4.16
2023-03-02T04:02:33.706Z,-4.02
2023-03-02T04:05:39.060Z,-4.04
2023-03-02T04:08:43.690Z,-4.07
2023-03-02T04:11:54.627Z,-4.08
2023-03-02T04:15:02.503Z,-4.22
2023-03-02T04:18:18.873Z,-4.07
2023-03-02T04:21:24.726Z,-4.09
2023-03-02T04:24:31.077Z,-4.04
2023-03-02T04:27:40.487Z,-4.04
2023-03-02T04:30:45.314Z,-4.25
2023-03-02T04:33:52.214Z,-4.09
2023-03-02T04:36:58.701Z,-3.99
2023-03-02T04:40:05.386Z,-3.80
2023-03-02T04:43:12.994Z,-3.84
2023-03-02T04:46:20.825Z,-3.79
2023-03-02T04:49:27.540Z,-3.78
2023-03-02T04:52:32.585Z,-3.65
2023-03-02T04:55:37.181Z,-3.91
2023-03-02T04:58:42.425Z,-4.03
2023-03-02T05:01:48.471Z,-3.97
2023-03-02T05:04:55.329Z,-3.98
2023-03-02T05:08:01.213Z,-4.28
2023-03-02T05:11:10.228Z,-4.30
2023-03-02T05:14:15.630Z,-4.27
2023-03-02T05:17:22.583Z,-4.16
2023-03-02T05:20:30.430Z,-4.18
2023-03-02T05:23:40.946Z,-4.20
2023-03-02T05:26:46.884Z,-4.29
2023-03-02T05:29:51.647Z,-4.28
2023-03-02T05:32:56.391Z,-4.17
2023-03-02T05:36:05.562Z,-4.04
2023-03-02T05:39:10.892Z,-4.34
2023-03-02T05:42:18.130Z,-4.32
2023-03-02T05:45:28.051Z,-4.34
2023-03-02T05:48:35.320Z,-4.45
2023-03-02T05:51:44.231Z,-4.32
2023-03-02T05:54:49.834Z,-4.34
2023-03-02T05:57:54.505Z,-4.21
2023-03-02T06:01:00.937Z,-4.19
2023-03-02T06:04:05.596Z,-4.23
2023-03-02T06:07:13.009Z,-4.14
2023-03-02T06:10:20.353Z,-4.00
2023-03-02T06:13:27.591Z,-3.92
2023-03-02T06:16:34.224Z,-3.59
2023-03-02T06:19:38.911Z,-3.56
2023-03-02T06:22:46.470Z,-3.61
2023-03-02T06:25:52.573Z,-3.96
2023-03-02T06:28:57.242Z,-3.68
2023-03-02T06:32:01.500Z,-3.39
2023-03-02T06:35:06.948Z,-3.43
2023-03-02T06:38:12.192Z,-3.47
2023-03-02T06:41:16.388Z,-3.12
2023-03-02T06:44:21.364Z,-3.17
2023-03-02T06:47:26.946Z,-2.88
2023-03-02T06:50:33.039Z,-2.73
2023-03-02T06:53:40.296Z,-2.49
2023-03-02T06:56:45.721Z,-2.36
2023-03-02T06:59:51.236Z,-2.21
2023-03-02T07:02:57.435Z,-2.05
2023-03-02T07:06:01.973Z,-2.03
2023-03-02T07:09:09.194Z,-1.91
2023-03-02T07:12:13.677Z,-2.06
2023-03-02T07:15:18.554Z,-1.92
2023-03-02T07:18:23.230Z,-1.95
2023-03-02T07:21:28.899Z,-1.73
2023-03-02T07:24:35.968Z,-1.50
2023-03-02T07:27:41.968Z,-1.49
2023-03-02T07:30:47.578Z,-1.40
2023-03-02T07:33:53.542Z,-1.16
2023-03-02T07:36:59.059Z,-0.61
2023-03-02T07:40:06.707Z,-0.52
2023-03-02T07:43:12.434Z,-0.42
2023-03-02T07:46:17.224Z,-0.35
2023-03-02T07:49:24.162Z,-0.21
2023-03-02T07:52:32.646Z,-0.23
2023-03-02T07:55:44.288Z,-0.20
2023-03-02T07:59:07.251Z,0.27
2023-03-02T08:02:20.547Z,0.29
2023-03-02T08:05:26.316Z,0.21
2023-03-02T08:08:38.771Z,0.43
2023-03-02T08:11:46.328Z,0.63
2023-03-02T08:14:52.065Z,0.77
2023-03-02T08:17:57.553Z,1.02
2023-03-02T08:21:01.591Z,0.84
2023-03-02T08:24:07.426Z,1.22
2023-03-02T08:27:16.331Z,1.15
2023-03-02T08:30:22.083Z,1.15
2023-03-02T08:33:29.141Z,1.31
2023-03-02T08:36:35.789Z,1.22
2023-03-02T08:39:41.217Z,1.52
2023-03-02T08:42:49.925Z,1.59
2023-03-02T08:45:58.418Z,1.79
2023-03-02T08:49:08.776Z,1.84
2023-03-02T08:52:19.454Z,2.08
2023-03-02T08:55:25.048Z,2.32
2023-03-02T08:58:32.509Z,2.58
2023-03-02T09:01:39.230Z,2.55
2023-03-02T09:04:44.673Z,2.67
2023-03-02T09:07:49.140Z,2.80
2023-03-02T09:10:54.866Z,2.70
2023-03-02T09:14:01.661Z,2.88
2023-03-02T09:17:07.128Z,2.85
2023-03-02T09:20:13.215Z,3.31
2023-03-02T09:23:19.073Z,3.34
2023-03-02T09:26:25.572Z,3.41
2023-03-02T09:29:32.324Z,3.63
2023-03-02T09:32:37.161Z,3.59
2023-03-02T09:35:42.769Z,3.81
2023-03-02T09:38:47.422Z,4.02
2023-03-02T09:42:15.734Z,4.32
2023-03-02T09:45:33.833Z,4.39
2023-03-02T09:48:48.520Z,4.26
2023-03-02T09:52:05.881Z,4.52
2023-03-02T09:55:17.653Z,5.17
2023-03-02T09:58:27.055Z,4.98
2023-03-02T10:01:40.321Z,4.90
2023-03-02T10:04:49.448Z,5.23
2023-03-02T10:07:57.402Z,5.07
2023-03-02T10:11:12.896Z,5.20
2023-03-02T10:14:26.188Z,5.48
2023-03-02T10:17:44.312Z,5.49
2023-03-02T10:20:55.868Z,6.09
2023-03-02T10:24:05.150Z,5.91
2023-03-02T10:27:17.376Z,5.89
2023-03-02T10:30:27.887Z,6.31
2023-03-02T10:33:36.388Z,5.84
2023-03-02T10:36:44.922Z,6.15
2023-03-02T10:39:49.597Z,6.22
2023-03-02T10:42:56.593Z,6.33
2023-03-02T10:46:05.107Z,6.47
2023-03-02T10:49:31.267Z,6.60
2023-03-02T10:52:36.229Z,6.61
2023-03-02T10:55:47.656Z,6.70
2023-03-02T10:58:55.038Z,6.88
2023-03-02T11:02:02.676Z,6.57
2023-03-02T11:05:27.651Z,6.52
2023-03-02T11:08:33.109Z,6.98
2023-03-02T11:11:38.499Z,6.88
2023-03-02T11:14:44.284Z,6.91
2023-03-02T11:17:52.061Z,7.08
2023-03-02T11:21:05.710Z,7.54
2023-03-02T11:24:15.672Z,7.61
2023-03-02T11:27:25.365Z,7.34
2023-03-02T11:30:36.220Z,7.33
2023-03-02T11:33:49.915Z,7.49
2023-03-02T11:37:08.045Z,7.09
2023-03-02T11:40:23.836Z,7.61
2023-03-02T11:43:29.229Z,8.27
2023-03-02T11:46:34.804Z,8.31
2023-03-02T11:49:45.300Z,8.63
2023-03-02T11:52:55.830Z,7.98
2023-03-02T11:56:01.843Z,8.28
2023-03-02T11:59:17.055Z,8.40
2023-03-02T12:02:22.373Z,8.52
2023-03-02T12:05:30.949Z,8.56
2023-03-02T12:08:40.916Z,8.97
2023-03-02T12:11:47.724Z,9.08
2023-03-02T12:14:53.675Z,8.29
2023-03-02T12:17:58.315Z,9.08
2023-03-02T12:21:06.051Z,8.68
2023-03-02T12:24:26.873Z,9.20
2023-03-02T12:27:38.163Z,8.78
2023-03-02T12:30:43.984Z,8.60
2023-03-02T12:33:52.015Z,8.78
2023-03-02T12:37:01.156Z,9.07
2023-03-02T12:40:38.890Z,9.25
2023-03-02T12:43:48.668Z,9.57
2023-03-02T12:46:56.446Z,9.29
2023-03-02T12:50:05.769Z,9.75
2023-03-02T12:53:19.086Z,8.72
2023-03-02T12:56:26.793Z,8.43
2023-03-02T12:59:33.017Z,8.93
2023-03-02T13:02:46.027Z,9.09
2023-03-02T13:05:51.922Z,9.38
2023-03-02T13:09:00.072Z,9.25
2023-03-02T13:12:14.672Z,8.69
2023-03-02T13:15:20.402Z,8.78
2023-03-02T13:18:31.942Z,9.04
2023-03-02T13:21:39.806Z,8.80
2023-03-02T13:24:51.163Z,9.42
2023-03-02T13:28:04.674Z,9.22
2023-03-02T13:31:21.178Z,9.39
2023-03-02T13:34:31.062Z,8.89
2023-03-02T13:37:40.576Z,9.41
2023-03-02T13:40:48.714Z,9.01
2023-03-02T13:43:54.908Z,8.88
2023-03-02T13:47:01.040Z,9.12
2023-03-02T13:50:10.397Z,8.79
2023-03-02T13:53:15.096Z,8.66
2023-03-02T13:56:20.954Z,8.46
2023-03-02T13:59:28.296Z,8.49
2023-03-02T14:02:33.572Z,8.39
2023-03-02T14:05:38.969Z,8.14
2023-03-02T14:08:44.392Z,8.34
2023-03-02T14:11:52.121Z,8.20
2023-03-02T14:15:01.767Z,7.86
2023-03-02T14:18:22.281Z,7.79
2023-03-02T14:21:28.044Z,7.44
2023-03-02T14:24:33.358Z,7.67
2023-03-02T14:27:40.049Z,7.79
2023-03-02T14:30:46.146Z,7.51
2023-03-02T14:33:51.710Z,7.37
2023-03-02T14:36:59.796Z,7.15
2023-03-02T14:40:07.843Z,7.36
2023-03-02T14:43:13.544Z,7.10
2023-03-02T14:46:20.340Z,7.11
2023-03-02T14:49:25.705Z,6.94
2023-03-02T14:52:34.683Z,6.96
2023-03-02T14:55:42.239Z,7.02
2023-03-02T14:58:46.149Z,6.94
2023-03-02T15:01:53.084Z,6.44
2023-03-02T15:04:58.698Z,6.60
2023-03-02T15:08:03.193Z,6.61
2023-03-02T15:11:07.798Z,6.48
2023-03-02T15:14:13.274Z,6.73
2023-03-02T15:17:19.216Z,6.46
2023-03-02T15:20:23.932Z,6.33
2023-03-02T15:23:29.354Z,6.32
2023-03-02T15:26:34.588Z,6.06
2023-03-02T15:29:39.955Z,6.01
2023-03-02T15:32:46.610Z,5.99
2023-03-02T15:35:55.411Z,5.94
2023-03-02T15:39:00.997Z,5.74
2023-03-02T15:42:06.897Z,5.70
2023-03-02T15:45:13.030Z,5.51
2023-03-02T15:48:19.701Z,5.56
2023-03-02T15:51:25.209Z,5.50
2023-03-02T15:54:30.702Z,5.27
2023-03-02T15:57:38.731Z,5.15
2023-03-02T16:00:44.052Z,5.02
2023-03-02T16:03:50.853Z,4.96
2023-03-02T16:06:57.420Z,4.83
2023-03-02T16:10:02.800Z,4.69
2023-03-02T16:13:07.663Z,4.65
2023-03-02T16:16:13.139Z,4.57
2023-03-02T16:19:21.217Z,4.37
2023-03-02T16:22:26.666Z,4.29
2023-03-02T16:25:33.272Z,4.24
2023-03-02T16:28:38.656Z,4.10
2023-03-02T16:31:47.075Z,4.05
2023-03-02T16:34:55.661Z,3.83
2023-03-02T16:38:00.741Z,3.78
2023-03-02T16:41:06.712Z,3.50
2023-03-02T16:44:16.868Z,3.47
2023-03-02T16:47:22.295Z,3.42
2023-03-02T16:50:29.264Z,3.41
2023-03-02T16:53:34.759Z,3.45
2023-03-02T16:56:41.954Z,3.50
2023-03-02T16:59:47.407Z,3.55
2023-03-02T17:02:54.246Z,3.38
2023-03-02T17:06:01.459Z,3.42
2023-03-02T17:09:06.007Z,3.64
2023-03-02T17:12:11.391Z,3.42
2023-03-02T17:15:15.828Z,3.33
2023-03-02T17:18:21.193Z,3.09
2023-03-02T17:21:27.956Z,2.95
2023-03-02T17:24:33.241Z,2.85
2023-03-02T17:27:37.654Z,2.75
2023-03-02T17:30:44.700Z,2.97
2023-03-02T17:33:50.387Z,3.07
2023-03-02T17:36:57.522Z,2.81
2023-03-02T17:40:02.862Z,2.63
2023-03-02T17:43:08.465Z,2.39
2023-03-02T17:46:16.969Z,2.20
2023-03-02T17:49:22.588Z,2.07
2023-03-02T17:52:30.061Z,2.04
2023-03-02T17:55:35.766Z,1.99
2023-03-02T17:58:45.062Z,2.19
2023-03-02T18:01:50.999Z,2.21
2023-03-02T18:04:56.329Z,2.19
2023-03-02T18:08:03.281Z,2.05
2023-03-02T18:11:08.645Z,1.80
2023-03-02T18:14:16.608Z,1.42
2023-03-02T18:17:21.996Z,1.26
2023-03-02T18:20:27.523Z,1.32
2023-03-02T18:23:34.895Z,1.10
2023-03-02T18:26:40.728Z,1.10
2023-03-02T18:29:46.268Z,1.14
2023-03-02T18:32:51.705Z,1.04
2023-03-02T18:35:57.490Z,0.82
2023-03-02T18:39:04.599Z,0.96
2023-03-02T18:42:12.494Z,0.89
2023-03-02T18:45:23.867Z,0.85
2023-03-02T18:48:30.046Z,0.73
2023-03-02T18:51:35.596Z,0.61
2023-03-02T18:54:42.385Z,0.45
2023-03-02T18:57:47.815Z,0.25
2023-03-02T19:00:55.172Z,0.14
2023-03-02T19:04:02.323Z,0.37
2023-03-02T19:07:09.018Z,0.21
2023-03-02T19:10:17.024Z,0.27
2023-03-02T19:13:22.696Z,0.19
2023-03-02T19:16:28.213Z,0.20
2023-03-02T19:19:35.524Z,0.20
2023-03-02T19:22:40.982Z,0.04
2023-03-02T19:25:48.807Z,0.19
2023-03-02T19:28:56.080Z,0.10
2023-03-02T19:32:01.630Z,0.11
2023-03-02T19:35:07.040Z,0.08
2023-03-02T19:38:14.766Z,0.02
2023-03-02T19:41:22.339Z,0.11
2023-03-02T19:44:27.822Z,0.15
2023-03-02T19:47:33.302Z,0.06
2023-03-02T19:50:38.726Z,-0.02
2023-03-02T19:53:47.207Z,0.09
2023-03-02T19:56:55.469Z,0.02
2023-03-02T20:00:00.845Z,-0.02
2023-03-02T20:03:08.527Z,-0.02
2023-03-02T20:06:14.924Z,0.10
2023-03-02T20:09:20.654Z,0.23
2023-03-02T20:12:27.772Z,0.27
2023-03-02T20:15:35.155Z,0.23
2023-03-02T20:18:41.911Z,0.22
2023-03-02T20:21:47.358Z,0.23
2023-03-02T20:24:52.753Z,0.21
2023-03-02T20:27:59.620Z,0.18
2023-03-02T20:31:09.020Z,0.16
2023-03-02T20:34:16.599Z,0.53
2023-03-02T20:37:23.951Z,0.47
2023-03-02T20:40:29.860Z,0.46
2023-03-02T20:43:36.644Z,0.59
2023-03-02T20:46:44.422Z,0.77
2023-03-02T20:49:50.243Z,0.55
2023-03-02T20:52:56.090Z,0.49
2023-03-02T20:56:01.482Z,0.57
2023-03-02T20:59:08.954Z,0.52
2023-03-02T21:02:15.917Z,0.46
2023-03-02T21:05:21.759Z,0.52
2023-03-02T21:08:27.799Z,0.49
2023-03-02T21:11:33.709Z,0.52
2023-03-02T21:14:41.642Z,0.78
2023-03-02T21:17:47.600Z,0.62
2023-03-02T21:20:52.940Z,0.55
2023-03-02T21:23:58.323Z,0.43
2023-03-02T21:27:04.464Z,0.41
2023-03-02T21:30:19.896Z,0.57
2023-03-02T21:33:25.250Z,0.50
2023-03-02T21:36:31.026Z,0.32
2023-03-02T21:39:36.640Z,0.39
2023-03-02T21:42:41.155Z,0.48
2023-03-02T21:45:47.883Z,0.66
2023-03-02T21:48:53.877Z,0.60
2023-03-02T21:51:59.251Z,0.61
2023-03-02T21:55:04.866Z,0.38
2023-03-02T21:58:13.718Z,0.43
2023-03-02T22:01:21.279Z,0.40
2023-03-02T22:04:25.804Z,0.38
2023-03-02T22:07:31.392Z,0.35
2023-03-02T22:10:41.565Z,0.32
2023-03-02T22:13:48.521Z,0.17
2023-03-02T22:16:55.311Z,0.11
2023-03-02T22:20:00.555Z,0.44
2023-03-02T22:23:15.422Z,0.23
2023-03-02T22:26:20.877Z,0.05
2023-03-02T22:29:27.955Z,0.06
2023-03-02T22:32:38.045Z,0.29
2023-03-02T22:35:42.945Z,0.46
2023-03-02T22:38:48.532Z,0.40
2023-03-02T22:41:59.695Z,0.00
2023-03-02T22:45:13.005Z,-0.08
2023-03-02T22:48:23.157Z,-0.10
2023-03-02T22:51:31.117Z,0.08
2023-03-02T22:54:38.867Z,0.10
2023-03-02T22:57:44.385Z,0.19
2023-03-02T23:00:50.235Z,-0.06
2023-03-02T23:04:02.172Z,-0.47
2023-03-02T23:07:17.301Z,-0.44
2023-03-02T23:10:23.444Z,-0.37
2023-03-02T23:13:40.947Z,-0.51
2023-03-02T23:16:46.013Z,-0.52
2023-03-02T23:19:52.832Z,-0.26
2023-03-02T23:22:58.361Z,-0.53
2023-03-02T23:26:03.793Z,-0.49
2023-03-02T23:29:09.142Z,-0.51
2023-03-02T23:32:12.929Z,-0.84
2023-03-02T23:35:19.793Z,-0.66
2023-03-02T23:38:25.112Z,-0.29
2023-03-02T23:41:30.694Z,-0.55
2023-03-02T23:44:36.057Z,-0.51
2023-03-02T23:47:41.109Z,-0.75
2023-03-02T23:50:48.325Z,-0.52
2023-03-02T23:53:54.019Z,-0.39
2023-03-02T23:56:59.290Z,-0.84
